Time;durP1;ratioP1;P1;durP2;ratioP2;P2;SDS_P1;SDS_P2;PMS_P1;PMS_P2;Temp;Humidity;BMP_temperature;BMP_pressure;BME280_temperature;BME280_humidity;BME280_pressure;Samples;Min_cycle;Max_cycle;Signal;HPM_P1;HPM_P2
2023/05/11 00:07:19;;;;;;;;;;;17.70;38.40;;;;;;21175643;28;20412;-55
2023/05/11 00:17:20;;;;;;;;;;;17.50;39.00;;;;;;21174638;28;19924;-55
2023/05/11 00:27:20;;;;;;;;;;;17.20;39.50;;;;;;21172950;28;20320;-54
2023/05/11 00:37:21;;;;;;;;;;;17.20;40.00;;;;;;21172582;28;20023;-55
2023/05/11 00:47:22;;;;;;;;;;;17.10;40.40;;;;;;21173121;28;20463;-54
2023/05/11 00:57:22;;;;;;;;;;;16.80;40.90;;;;;;21172978;28;19928;-55
2023/05/11 01:07:29;;;;;;;;;;;16.70;41.30;;;;;;21171287;28;19975;-57
2023/05/11 01:17:35;;;;;;;;;;;16.50;41.90;;;;;;21169825;28;20292;-55
2023/05/11 01:27:42;;;;;;;;;;;16.40;42.30;;;;;;21167534;28;19924;-57
2023/05/11 01:37:46;;;;;;;;;;;16.30;42.50;;;;;;21167330;28;19923;-56
2023/05/11 01:47:48;;;;;;;;;;;16.20;42.80;;;;;;21166730;28;19930;-55
2023/05/11 01:57:51;;;;;;;;;;;16.10;43.10;;;;;;21166062;28;20449;-56
2023/05/11 02:07:53;;;;;;;;;;;16.00;43.40;;;;;;21165477;28;19935;-55
2023/05/11 02:17:54;;;;;;;;;;;15.90;43.90;;;;;;21164112;28;19928;-56
2023/05/11 02:27:55;;;;;;;;;;;15.70;44.40;;;;;;21163138;28;19928;-54
2023/05/11 02:37:58;;;;;;;;;;;15.70;44.20;;;;;;21162487;28;19950;-54
2023/05/11 02:47:59;;;;;;;;;;;15.70;44.10;;;;;;21162696;28;19924;-55
2023/05/11 02:58:00;;;;;;;;;;;15.60;43.90;;;;;;21163355;28;19976;-54
2023/05/11 03:08:01;;;;;;;;;;;15.50;44.00;;;;;;21162424;28;19970;-55
2023/05/11 03:18:02;;;;;;;;;;;15.30;44.20;;;;;;21162144;28;19924;-56
2023/05/11 03:28:04;;;;;;;;;;;15.10;44.60;;;;;;21161238;28;19923;-55
2023/05/11 03:38:05;;;;;;;;;;;15.10;44.70;;;;;;21161827;28;20384;-57
2023/05/11 03:48:05;;;;;;;;;;;14.90;45.20;;;;;;21160096;28;20159;-55
2023/05/11 03:58:09;;;;;;;;;;;15.00;45.00;;;;;;21164759;28;19924;-54
2023/05/11 04:08:10;;;;;;;;;;;14.70;45.50;;;;;;21176469;28;19981;-56
2023/05/11 04:18:11;;;;;;;;;;;14.70;45.60;;;;;;21175349;28;19924;-56
2023/05/11 04:28:11;;;;;;;;;;;14.20;46.60;;;;;;21175042;28;19924;-55
2023/05/11 04:38:12;;;;;;;;;;;14.20;46.70;;;;;;21174637;28;19924;-54
2023/05/11 04:48:13;;;;;;;;;;;14.20;47.20;;;;;;21173311;28;20020;-55
2023/05/11 04:58:13;;;;;;;;;;;14.10;47.40;;;;;;21171586;28;19963;-56
2023/05/11 05:08:14;;;;;;;;;;;13.90;47.90;;;;;;21170901;28;20388;-55
2023/05/11 05:18:14;;;;;;;;;;;13.90;48.00;;;;;;21136282;28;19936;-55
2023/05/11 05:28:15;;;;;;;;;;;13.90;47.90;;;;;;21085797;28;19928;-54
2023/05/11 05:38:16;;;;;;;;;;;13.90;47.90;;;;;;21085139;28;20498;-55
2023/05/11 05:48:16;;;;;;;;;;;13.80;48.10;;;;;;21084592;28;20318;-55
2023/05/11 05:58:17;;;;;;;;;;;13.90;48.10;;;;;;21083874;28;20391;-55
2023/05/11 06:08:17;;;;;;;;;;;14.00;47.70;;;;;;21082806;28;20369;-55
2023/05/11 06:18:18;;;;;;;;;;;14.10;47.20;;;;;;21081203;28;19930;-56
2023/05/11 06:28:21;;;;;;;;;;;14.30;46.70;;;;;;21080663;28;19994;-54
2023/05/11 06:38:22;;;;;;;;;;;14.30;46.50;;;;;;21080569;28;19928;-56
2023/05/11 06:48:24;;;;;;;;;;;14.80;45.30;;;;;;21079897;28;19986;-56
2023/05/11 06:58:25;;;;;;;;;;;15.20;44.70;;;;;;21078415;28;19928;-54
2023/05/11 07:08:27;;;;;;;;;;;15.50;43.90;;;;;;21078818;28;19924;-55
2023/05/11 07:18:28;;;;;;;;;;;15.90;43.10;;;;;;21078471;28;19931;-56
2023/05/11 07:28:28;;;;;;;;;;;16.20;42.40;;;;;;21079005;28;20353;-56
2023/05/11 07:38:29;;;;;;;;;;;16.50;42.10;;;;;;21091961;28;20406;-55
2023/05/11 07:48:30;;;;;;;;;;;16.40;42.00;;;;;;21094404;28;19985;-54
2023/05/11 07:58:31;;;;;;;;;;;16.60;41.70;;;;;;21093464;28;20002;-54
2023/05/11 08:08:32;;;;;;;;;;;16.70;41.10;;;;;;21092238;28;19955;-56
2023/05/11 08:18:32;;;;;;;;;;;16.90;40.50;;;;;;21089744;28;19924;-55
2023/05/11 08:28:33;;;;;;;;;;;17.30;39.90;;;;;;21090492;28;20391;-54
2023/05/11 08:38:34;;;;;;;;;;;17.60;39.30;;;;;;21089985;28;19925;-56
2023/05/11 08:48:35;;;;;;;;;;;17.80;38.90;;;;;;21087820;28;19931;-56
2023/05/11 08:58:37;;;;;;;;;;;18.10;38.60;;;;;;21088287;28;19950;-58
2023/05/11 09:08:38;;;;;;;;;;;19.10;39.50;;;;;;21087478;28;20346;-58
2023/05/11 09:18:48;;;;;;;;;;;19.90;36.50;;;;;;21085590;28;19924;-59
2023/05/11 09:28:53;;;;;;;;;;;20.30;35.20;;;;;;21085144;28;20237;-56
2023/05/11 09:38:54;;;;;;;;;;;20.20;35.20;;;;;;21085139;28;20381;-57
2023/05/11 09:48:59;;;;;;;;;;;20.30;35.30;;;;;;21083773;28;19970;-55
2023/05/11 09:58:59;;;;;;;;;;;19.70;37.20;;;;;;21082386;28;19924;-56
2023/05/11 10:09:07;;;;;;;;;;;19.60;36.70;;;;;;21082253;28;19991;-56
2023/05/11 10:19:10;;;;;;;;;;;19.60;36.30;;;;;;21082149;28;19959;-57
2023/05/11 10:29:10;;;;;;;;;;;19.30;36.00;;;;;;21081221;28;20395;-56
2023/05/11 10:39:11;;;;;;;;;;;19.50;35.80;;;;;;21080586;28;19927;-56
2023/05/11 10:49:21;;;;;;;;;;;19.70;35.30;;;;;;21080383;28;19924;-55
2023/05/11 10:59:40;;;;;;;;;;;20.00;35.10;;;;;;21080004;28;20452;-55
2023/05/11 11:09:58;;;;;;;;;;;20.10;34.40;;;;;;21087902;28;20377;-56
2023/05/11 11:20:00;;;;;;;;;;;20.20;34.20;;;;;;21096075;28;19924;-59
2023/05/11 11:30:19;;;;;;;;;;;20.30;34.50;;;;;;21095833;28;19977;-56
2023/05/11 11:40:33;;;;;;;;;;;20.50;34.20;;;;;;21094064;28;19924;-56
2023/05/11 11:50:34;;;;;;;;;;;20.70;33.90;;;;;;21093435;28;20283;-55
2023/05/11 12:00:35;;;;;;;;;;;20.80;33.30;;;;;;21093242;28;19930;-54
2023/05/11 12:10:35;;;;;;;;;;;20.90;33.20;;;;;;21091800;28;20433;-55
2023/05/11 12:20:36;;;;;;;;;;;21.10;32.30;;;;;;21089298;28;19969;-57
2023/05/11 12:30:36;;;;;;;;;;;21.00;32.30;;;;;;21090012;28;19931;-56
2023/05/11 12:40:45;;;;;;;;;;;21.20;31.30;;;;;;21089120;28;19924;-56
2023/05/11 12:50:45;;;;;;;;;;;21.40;30.20;;;;;;21087508;28;19928;-57
2023/05/11 13:00:51;;;;;;;;;;;21.40;30.40;;;;;;21085916;28;19924;-56
2023/05/11 13:10:51;;;;;;;;;;;21.80;30.40;;;;;;21086655;28;20415;-56
2023/05/11 13:21:08;;;;;;;;;;;22.00;29.60;;;;;;21085203;28;19947;-56
2023/05/11 13:31:08;;;;;;;;;;;21.90;29.20;;;;;;21084862;28;19931;-57
2023/05/11 13:41:09;;;;;;;;;;;21.90;28.90;;;;;;21083648;28;20290;-56
2023/05/11 13:51:10;;;;;;;;;;;21.90;27.90;;;;;;21083841;28;19928;-57
2023/05/11 14:01:10;;;;;;;;;;;21.90;28.00;;;;;;21083100;28;19931;-56
2023/05/11 14:11:11;;;;;;;;;;;22.20;27.10;;;;;;21082331;28;20021;-55
2023/05/11 14:21:12;;;;;;;;;;;22.30;27.20;;;;;;21081414;28;20002;-56
2023/05/11 14:31:12;;;;;;;;;;;22.30;26.40;;;;;;21081177;28;19924;-55
2023/05/11 14:41:13;;;;;;;;;;;22.40;26.00;;;;;;21080579;28;19924;-56
2023/05/11 14:51:14;;;;;;;;;;;22.50;25.70;;;;;;21078981;28;19982;-56
2023/05/11 15:01:14;;;;;;;;;;;22.70;26.00;;;;;;21079663;28;20304;-56
2023/05/11 15:11:15;;;;;;;;;;;22.90;25.30;;;;;;21079399;28;20016;-57
2023/05/11 15:21:16;;;;;;;;;;;22.70;24.80;;;;;;21079447;28;20016;-57
2023/05/11 15:31:17;;;;;;;;;;;22.70;24.70;;;;;;21077809;28;19978;-55
2023/05/11 15:41:17;;;;;;;;;;;22.90;24.70;;;;;;21078444;28;20361;-57
2023/05/11 15:51:18;;;;;;;;;;;22.80;24.60;;;;;;21077901;28;19939;-56
2023/05/11 16:01:18;;;;;;;;;;;22.80;24.70;;;;;;21091788;28;19924;-56
2023/05/11 16:11:20;;;;;;;;;;;22.80;25.20;;;;;;21091327;28;20026;-58
2023/05/11 16:21:21;;;;;;;;;;;22.70;24.80;;;;;;21090478;28;19924;-60
2023/05/11 16:31:21;;;;;;;;;;;22.80;24.60;;;;;;21090014;28;19924;-57
2023/05/11 16:41:24;;;;;;;;;;;22.80;25.50;;;;;;21090290;28;19946;-56
2023/05/11 16:51:24;;;;;;;;;;;22.60;25.30;;;;;;21089339;28;19924;-55
2023/05/11 17:01:25;;;;;;;;;;;22.60;25.00;;;;;;21088212;28;19931;-54
2023/05/11 17:11:26;;;;;;;;;;;22.30;25.70;;;;;;21083936;28;19928;-57
2023/05/11 17:21:27;;;;;;;;;;;22.20;25.30;;;;;;21083991;28;19970;-57
2023/05/11 17:31:28;;;;;;;;;;;22.00;25.90;;;;;;21085351;28;19924;-56
2023/05/11 17:41:28;;;;;;;;;;;21.70;26.20;;;;;;21084631;28;19924;-56
2023/05/11 17:51:30;;;;;;;;;;;21.70;26.30;;;;;;21083484;28;19924;-58
2023/05/11 18:01:30;;;;;;;;;;;21.50;26.10;;;;;;21084074;28;19924;-58
2023/05/11 18:11:33;;;;;;;;;;;21.40;26.40;;;;;;21080329;28;21585;-58
2023/05/11 18:21:35;;;;;;;;;;;21.10;26.90;;;;;;21080116;28;19924;-57
2023/05/11 18:31:35;;;;;;;;;;;21.00;26.50;;;;;;21081678;28;20269;-58
2023/05/11 18:41:36;;;;;;;;;;;20.90;26.60;;;;;;21080513;28;19973;-58
2023/05/11 18:51:37;;;;;;;;;;;20.60;27.00;;;;;;21080084;28;19924;-57
2023/05/11 19:01:38;;;;;;;;;;;20.70;26.90;;;;;;21079477;28;19996;-56
2023/05/11 19:11:38;;;;;;;;;;;20.20;27.50;;;;;;21078788;28;19968;-57
2023/05/11 19:21:41;;;;;;;;;;;20.20;27.70;;;;;;21077908;28;19924;-56
2023/05/11 19:31:42;;;;;;;;;;;19.90;28.10;;;;;;21087189;28;19967;-58
2023/05/11 19:41:42;;;;;;;;;;;19.90;28.30;;;;;;21092707;28;19924;-56
2023/05/11 19:51:43;;;;;;;;;;;19.80;28.30;;;;;;21092616;28;19930;-57
2023/05/11 20:01:45;;;;;;;;;;;19.60;28.70;;;;;;21091967;28;19924;-58
2023/05/11 20:11:46;;;;;;;;;;;19.50;28.80;;;;;;21091582;28;19935;-56
2023/05/11 20:21:46;;;;;;;;;;;19.50;28.60;;;;;;21089514;28;19928;-57
2023/05/11 20:31:47;;;;;;;;;;;19.30;28.80;;;;;;21089545;28;19924;-59
2023/05/11 20:41:50;;;;;;;;;;;19.20;28.90;;;;;;21089807;28;19924;-58
2023/05/11 20:51:52;;;;;;;;;;;19.20;29.10;;;;;;21087281;28;19931;-57
2023/05/11 21:01:53;;;;;;;;;;;19.10;29.00;;;;;;21087856;28;19954;-57
2023/05/11 21:11:53;;;;;;;;;;;19.10;29.10;;;;;;21086642;28;20015;-58
2023/05/11 21:21:54;;;;;;;;;;;18.90;29.30;;;;;;21083032;28;20007;-59
2023/05/11 21:31:55;;;;;;;;;;;18.80;29.40;;;;;;21085030;28;20018;-57
2023/05/11 21:41:55;;;;;;;;;;;18.70;29.60;;;;;;21084170;28;19974;-58
2023/05/11 21:51:56;;;;;;;;;;;18.70;29.60;;;;;;21081503;28;19975;-57
2023/05/11 22:01:56;;;;;;;;;;;18.50;30.20;;;;;;21081767;28;20305;-59
2023/05/11 22:11:57;;;;;;;;;;;18.40;30.20;;;;;;21081984;28;19924;-58
2023/05/11 22:21:58;;;;;;;;;;;18.20;30.50;;;;;;21080591;28;20014;-56
2023/05/11 22:31:59;;;;;;;;;;;18.20;30.70;;;;;;21079773;28;19950;-57
2023/05/11 22:41:59;;;;;;;;;;;18.00;31.10;;;;;;21079870;28;19924;-58
2023/05/11 22:52:00;;;;;;;;;;;17.80;31.20;;;;;;21079102;28;19967;-57
2023/05/11 23:02:02;;;;;;;;;;;17.60;31.70;;;;;;21077336;28;19924;-57
2023/05/11 23:12:03;;;;;;;;;;;17.40;32.30;;;;;;21077388;28;19931;-55
2023/05/11 23:22:04;;;;;;;;;;;17.40;32.90;;;;;;21076560;28;19924;-56
2023/05/11 23:32:04;;;;;;;;;;;17.20;33.30;;;;;;21076869;28;19991;-57
2023/05/11 23:42:07;;;;;;;;;;;17.00;34.00;;;;;;21077105;28;19969;-56
2023/05/11 23:52:08;;;;;;;;;;;17.00;34.60;;;;;;21076759;28;19978;-58
